Lexington, KY (40502)

1:47 PM EDT on August 29, 2015 (GMT -0400)
Montclair | | Change Station
CLOSE
Current Station
Personal Weather Station
Location: Lexington, KY
Elevation: 1017 ft
Nearby Weather Stations

Elev 1017 ft 38.02 °N, 84.50 °W | Updated 4 minutes ago

Partly Cloudy
Partly Cloudy
84.2 °F
Feels Like 88 °F
N
0.0
Wind Variable Wind from SSW

Today
High -- | Low -- °F
--% Chance of Precip.
Yesterday
High -- | Low -- °F
Precip. -- in
7:04 AM 8:12 PM
Full, 100% visible
Pressure 30.14 in
Visibility 10.0 miles
Clouds Few 3700 ft
Heat Index 88 °F
Dew Point 69 °F
Humidity 61%
Rainfall 0.00 in
Snow Depth Not available.
UV 9 out of 12
Pollen 9.50 out of 12
Air Quality Not available.
Flu Activity Not available.
METAR KLEX 291654Z 19013KT 10SM FEW037 29/19 A3016 RMK AO2 SLP204 T02940189 $
Pressure 30.14 in
Visibility 10.0 miles
Clouds Few 3700 ft
Heat Index 88 °F
Dew Point 69 °F
Humidity 61%
Rainfall 0.00 in
Snow Depth Not available.
UV 9 out of 12
Pollen 9.50 out of 12
Air Quality Not available.
Flu Activity Not available.
METAR KLEX 291654Z 19013KT 10SM FEW037 29/19 A3016 RMK AO2 SLP204 T02940189 $

10-Day Weather Forecast

×

Almanac

Astronomy

Aug. 29, 2015 Rise Set
Actual Time
Civil Twilight
Nautical Twilight
Astronomical Twilight
Moon
Length of Visible Light
Length of Day
Tomorrow will be .
, % of the Moon is Illuminated

Today's Extremes

State Highs State Lows

Community

WunderPhotos

Upload Photos

1,850,743 photos uploaded!

WunderBlogs® & News

Nearby

Air Quality

  Air Quality AQ Index Pollutant
Not available.

Snow Depth

Station Depth Elevation

Earthquake Activity

City Distance Mag. Time & Date
Minimum magnitude displayed is 2.5.

Coastal Water Temperatures

Place Temperature

Stations

Nearby Weather Stations

Station Location Temp. Windchill Dew Point Humidity Wind Precip. Elev Updated Type